sensor_id;sensor_type;location;lat;lon;timestamp;temperature;humidity
16064;DHT22;8136;53.172;8.256;2023-07-13T00:00:44;15.80;99.90
16064;DHT22;8136;53.172;8.256;2023-07-13T00:03:13;15.90;99.90
16064;DHT22;8136;53.172;8.256;2023-07-13T00:05:39;15.90;99.90
16064;DHT22;8136;53.172;8.256;2023-07-13T00:08:06;15.90;99.90
16064;DHT22;8136;53.172;8.256;2023-07-13T00:10:33;15.90;99.90
16064;DHT22;8136;53.172;8.256;2023-07-13T00:13:00;15.80;99.90
16064;DHT22;8136;53.172;8.256;2023-07-13T00:15:27;15.80;99.90
16064;DHT22;8136;53.172;8.256;2023-07-13T00:17:57;15.80;99.90
16064;DHT22;8136;53.172;8.256;2023-07-13T00:20:27;15.80;99.90
16064;DHT22;8136;53.172;8.256;2023-07-13T00:22:54;15.80;99.90
16064;DHT22;8136;53.172;8.256;2023-07-13T00:25:21;15.70;99.90
16064;DHT22;8136;53.172;8.256;2023-07-13T00:27:49;15.70;99.90
16064;DHT22;8136;53.172;8.256;2023-07-13T00:30:17;15.70;99.90
16064;DHT22;8136;53.172;8.256;2023-07-13T00:32:44;15.80;99.90
16064;DHT22;8136;53.172;8.256;2023-07-13T00:35:13;15.80;99.90
16064;DHT22;8136;53.172;8.256;2023-07-13T00:37:42;15.70;99.90
16064;DHT22;8136;53.172;8.256;2023-07-13T00:40:10;15.60;99.90
16064;DHT22;8136;53.172;8.256;2023-07-13T00:42:38;15.60;99.90
16064;DHT22;8136;53.172;8.256;2023-07-13T00:46:02;15.60;99.90
16064;DHT22;8136;53.172;8.256;2023-07-13T00:47:55;15.60;99.90
16064;DHT22;8136;53.172;8.256;2023-07-13T00:50:22;15.70;99.90
16064;DHT22;8136;53.172;8.256;2023-07-13T00:52:54;15.70;99.90
16064;DHT22;8136;53.172;8.256;2023-07-13T00:55:23;15.60;99.90
16064;DHT22;8136;53.172;8.256;2023-07-13T00:57:50;15.60;99.90
16064;DHT22;8136;53.172;8.256;2023-07-13T01:00:20;15.50;99.90
16064;DHT22;8136;53.172;8.256;2023-07-13T01:02:48;15.60;99.90
16064;DHT22;8136;53.172;8.256;2023-07-13T01:05:19;15.50;99.90
16064;DHT22;8136;53.172;8.256;2023-07-13T01:07:48;15.60;99.90
16064;DHT22;8136;53.172;8.256;2023-07-13T01:10:17;15.50;99.90
16064;DHT22;8136;53.172;8.256;2023-07-13T01:12:44;15.50;99.90
16064;DHT22;8136;53.172;8.256;2023-07-13T01:15:35;15.60;99.90
16064;DHT22;8136;53.172;8.256;2023-07-13T01:18:03;15.60;99.90
16064;DHT22;8136;53.172;8.256;2023-07-13T01:20:30;15.50;99.90
16064;DHT22;8136;53.172;8.256;2023-07-13T01:23:03;15.40;99.90
16064;DHT22;8136;53.172;8.256;2023-07-13T01:25:31;15.50;99.90
16064;DHT22;8136;53.172;8.256;2023-07-13T01:27:58;15.40;99.90
16064;DHT22;8136;53.172;8.256;2023-07-13T01:30:25;15.50;99.90
16064;DHT22;8136;53.172;8.256;2023-07-13T01:32:52;15.50;99.90
16064;DHT22;8136;53.172;8.256;2023-07-13T01:35:19;15.40;99.90
16064;DHT22;8136;53.172;8.256;2023-07-13T01:37:45;15.50;99.90
16064;DHT22;8136;53.172;8.256;2023-07-13T01:40:13;15.50;99.90
16064;DHT22;8136;53.172;8.256;2023-07-13T01:42:40;15.50;99.90
16064;DHT22;8136;53.172;8.256;2023-07-13T01:45:07;15.40;99.90
16064;DHT22;8136;53.172;8.256;2023-07-13T01:47:34;15.40;99.90
16064;DHT22;8136;53.172;8.256;2023-07-13T01:50:01;15.30;99.90
16064;DHT22;8136;53.172;8.256;2023-07-13T01:52:28;15.40;99.90
16064;DHT22;8136;53.172;8.256;2023-07-13T01:54:54;15.40;99.90
16064;DHT22;8136;53.172;8.256;2023-07-13T01:57:22;15.40;99.90
16064;DHT22;8136;53.172;8.256;2023-07-13T01:59:49;15.40;99.90
16064;DHT22;8136;53.172;8.256;2023-07-13T02:02:16;15.40;99.90
16064;DHT22;8136;53.172;8.256;2023-07-13T02:04:43;15.40;99.90
16064;DHT22;8136;53.172;8.256;2023-07-13T02:07:09;15.30;99.90
16064;DHT22;8136;53.172;8.256;2023-07-13T02:09:36;15.30;99.90
16064;DHT22;8136;53.172;8.256;2023-07-13T02:12:04;15.30;99.90
16064;DHT22;8136;53.172;8.256;2023-07-13T02:14:32;15.20;99.90
16064;DHT22;8136;53.172;8.256;2023-07-13T02:16:59;15.30;99.90
16064;DHT22;8136;53.172;8.256;2023-07-13T02:19:26;15.30;99.90
16064;DHT22;8136;53.172;8.256;2023-07-13T02:21:52;15.20;99.90
16064;DHT22;8136;53.172;8.256;2023-07-13T02:24:19;15.30;99.90
16064;DHT22;8136;53.172;8.256;2023-07-13T02:26:46;15.30;99.90
16064;DHT22;8136;53.172;8.256;2023-07-13T02:29:13;15.30;99.90
16064;DHT22;8136;53.172;8.256;2023-07-13T02:31:41;15.30;99.90
16064;DHT22;8136;53.172;8.256;2023-07-13T02:34:08;15.40;99.90
16064;DHT22;8136;53.172;8.256;2023-07-13T02:36:35;15.40;99.90
16064;DHT22;8136;53.172;8.256;2023-07-13T02:39:04;15.40;99.90
16064;DHT22;8136;53.172;8.256;2023-07-13T02:41:31;15.40;99.90
16064;DHT22;8136;53.172;8.256;2023-07-13T02:43:58;15.40;99.90
16064;DHT22;8136;53.172;8.256;2023-07-13T02:46:29;15.30;99.90
16064;DHT22;8136;53.172;8.256;2023-07-13T02:48:57;15.40;99.90
16064;DHT22;8136;53.172;8.256;2023-07-13T02:51:24;15.40;99.90
16064;DHT22;8136;53.172;8.256;2023-07-13T02:53:51;15.40;99.90
16064;DHT22;8136;53.172;8.256;2023-07-13T02:56:18;15.40;99.90
16064;DHT22;8136;53.172;8.256;2023-07-13T02:58:45;15.40;99.90
16064;DHT22;8136;53.172;8.256;2023-07-13T03:01:12;15.40;99.90
16064;DHT22;8136;53.172;8.256;2023-07-13T03:03:44;15.40;99.90
16064;DHT22;8136;53.172;8.256;2023-07-13T03:06:12;15.40;99.90
16064;DHT22;8136;53.172;8.256;2023-07-13T03:08:40;15.40;99.90
16064;DHT22;8136;53.172;8.256;2023-07-13T03:11:08;15.40;99.90
16064;DHT22;8136;53.172;8.256;2023-07-13T03:13:36;15.50;99.90
16064;DHT22;8136;53.172;8.256;2023-07-13T03:16:04;15.40;99.90
16064;DHT22;8136;53.172;8.256;2023-07-13T03:18:31;15.50;99.90
16064;DHT22;8136;53.172;8.256;2023-07-13T03:20:58;15.50;99.90
16064;DHT22;8136;53.172;8.256;2023-07-13T03:23:26;15.50;99.90
16064;DHT22;8136;53.172;8.256;2023-07-13T03:26:01;15.50;99.90
16064;DHT22;8136;53.172;8.256;2023-07-13T03:28:28;15.60;99.90
16064;DHT22;8136;53.172;8.256;2023-07-13T03:31:00;15.60;99.90
16064;DHT22;8136;53.172;8.256;2023-07-13T03:33:26;15.60;99.90
16064;DHT22;8136;53.172;8.256;2023-07-13T03:35:53;15.50;99.90
16064;DHT22;8136;53.172;8.256;2023-07-13T03:38:20;15.50;99.90
16064;DHT22;8136;53.172;8.256;2023-07-13T03:40:48;15.60;99.90
16064;DHT22;8136;53.172;8.256;2023-07-13T03:43:15;15.50;99.90
16064;DHT22;8136;53.172;8.256;2023-07-13T03:45:42;15.50;99.90
16064;DHT22;8136;53.172;8.256;2023-07-13T03:48:09;15.50;99.90
16064;DHT22;8136;53.172;8.256;2023-07-13T03:50:36;15.50;99.90
16064;DHT22;8136;53.172;8.256;2023-07-13T03:53:03;15.50;99.90
16064;DHT22;8136;53.172;8.256;2023-07-13T03:55:30;15.50;99.90
16064;DHT22;8136;53.172;8.256;2023-07-13T03:58:24;15.50;99.90
16064;DHT22;8136;53.172;8.256;2023-07-13T04:00:48;15.60;99.90
16064;DHT22;8136;53.172;8.256;2023-07-13T04:03:16;15.50;99.90
16064;DHT22;8136;53.172;8.256;2023-07-13T04:05:42;15.50;99.90
16064;DHT22;8136;53.172;8.256;2023-07-13T04:08:09;15.60;99.90
16064;DHT22;8136;53.172;8.256;2023-07-13T04:10:36;15.60;99.90
16064;DHT22;8136;53.172;8.256;2023-07-13T04:13:04;15.60;99.90
16064;DHT22;8136;53.172;8.256;2023-07-13T04:15:32;15.60;99.90
16064;DHT22;8136;53.172;8.256;2023-07-13T04:18:00;15.60;99.90
16064;DHT22;8136;53.172;8.256;2023-07-13T04:20:29;15.70;99.90
16064;DHT22;8136;53.172;8.256;2023-07-13T04:22:56;15.60;99.90
16064;DHT22;8136;53.172;8.256;2023-07-13T04:25:24;15.60;99.90
16064;DHT22;8136;53.172;8.256;2023-07-13T04:27:50;15.60;99.90
16064;DHT22;8136;53.172;8.256;2023-07-13T04:30:18;15.60;99.90
16064;DHT22;8136;53.172;8.256;2023-07-13T04:32:45;15.70;99.90
16064;DHT22;8136;53.172;8.256;2023-07-13T04:35:13;15.70;99.90
16064;DHT22;8136;53.172;8.256;2023-07-13T04:37:40;15.70;99.90
16064;DHT22;8136;53.172;8.256;2023-07-13T04:40:08;15.70;99.90
16064;DHT22;8136;53.172;8.256;2023-07-13T04:42:37;15.70;99.90
16064;DHT22;8136;53.172;8.256;2023-07-13T04:45:05;15.70;99.90
16064;DHT22;8136;53.172;8.256;2023-07-13T04:47:32;15.70;99.90
16064;DHT22;8136;53.172;8.256;2023-07-13T04:49:59;15.80;99.90
16064;DHT22;8136;53.172;8.256;2023-07-13T04:52:27;15.80;99.90
16064;DHT22;8136;53.172;8.256;2023-07-13T04:54:54;15.80;99.90
16064;DHT22;8136;53.172;8.256;2023-07-13T04:57:21;15.80;99.90
16064;DHT22;8136;53.172;8.256;2023-07-13T04:59:48;15.80;99.90
16064;DHT22;8136;53.172;8.256;2023-07-13T05:02:14;15.80;99.90
16064;DHT22;8136;53.172;8.256;2023-07-13T05:04:41;15.90;99.90
16064;DHT22;8136;53.172;8.256;2023-07-13T05:07:08;15.90;99.90
16064;DHT22;8136;53.172;8.256;2023-07-13T05:09:36;15.90;99.90
16064;DHT22;8136;53.172;8.256;2023-07-13T05:12:06;15.90;99.90
16064;DHT22;8136;53.172;8.256;2023-07-13T05:14:33;16.00;99.90
16064;DHT22;8136;53.172;8.256;2023-07-13T05:17:00;16.00;99.90
16064;DHT22;8136;53.172;8.256;2023-07-13T05:19:27;16.00;99.90
16064;DHT22;8136;53.172;8.256;2023-07-13T05:21:53;16.00;99.90
16064;DHT22;8136;53.172;8.256;2023-07-13T05:24:20;16.00;99.90
16064;DHT22;8136;53.172;8.256;2023-07-13T05:26:54;16.10;99.90
16064;DHT22;8136;53.172;8.256;2023-07-13T05:29:22;16.10;99.90
16064;DHT22;8136;53.172;8.256;2023-07-13T05:31:56;16.10;99.90
16064;DHT22;8136;53.172;8.256;2023-07-13T05:34:23;16.10;99.90
16064;DHT22;8136;53.172;8.256;2023-07-13T05:36:50;16.10;99.90
16064;DHT22;8136;53.172;8.256;2023-07-13T05:39:17;16.10;99.90
16064;DHT22;8136;53.172;8.256;2023-07-13T05:41:44;16.20;99.90
16064;DHT22;8136;53.172;8.256;2023-07-13T05:44:12;16.20;99.90
16064;DHT22;8136;53.172;8.256;2023-07-13T05:46:40;16.20;99.90
16064;DHT22;8136;53.172;8.256;2023-07-13T05:52:32;16.30;99.90
16064;DHT22;8136;53.172;8.256;2023-07-13T05:54:59;16.30;99.90
16064;DHT22;8136;53.172;8.256;2023-07-13T06:00:59;16.40;99.90
16064;DHT22;8136;53.172;8.256;2023-07-13T06:03:26;16.40;99.90
16064;DHT22;8136;53.172;8.256;2023-07-13T06:05:53;16.40;99.90
16064;DHT22;8136;53.172;8.256;2023-07-13T06:08:19;16.50;99.90
16064;DHT22;8136;53.172;8.256;2023-07-13T06:10:46;16.50;99.90
16064;DHT22;8136;53.172;8.256;2023-07-13T06:13:13;16.50;99.90
16064;DHT22;8136;53.172;8.256;2023-07-13T06:15:40;16.50;99.90
16064;DHT22;8136;53.172;8.256;2023-07-13T06:18:08;16.50;99.90
16064;DHT22;8136;53.172;8.256;2023-07-13T06:20:35;16.60;99.90
16064;DHT22;8136;53.172;8.256;2023-07-13T06:23:01;16.60;99.90
16064;DHT22;8136;53.172;8.256;2023-07-13T06:25:28;16.70;99.90
16064;DHT22;8136;53.172;8.256;2023-07-13T06:27:55;16.80;99.90
16064;DHT22;8136;53.172;8.256;2023-07-13T06:30:22;16.80;99.90
16064;DHT22;8136;53.172;8.256;2023-07-13T06:32:49;16.80;99.90
16064;DHT22;8136;53.172;8.256;2023-07-13T06:35:17;16.90;99.90
16064;DHT22;8136;53.172;8.256;2023-07-13T06:37:44;17.00;99.90
16064;DHT22;8136;53.172;8.256;2023-07-13T06:40:12;17.10;99.90
16064;DHT22;8136;53.172;8.256;2023-07-13T06:42:39;17.20;99.90
16064;DHT22;8136;53.172;8.256;2023-07-13T06:45:06;17.30;99.90
16064;DHT22;8136;53.172;8.256;2023-07-13T06:47:33;17.20;99.90
16064;DHT22;8136;53.172;8.256;2023-07-13T06:50:00;17.30;99.90
16064;DHT22;8136;53.172;8.256;2023-07-13T06:52:28;17.40;99.90
16064;DHT22;8136;53.172;8.256;2023-07-13T06:54:55;17.50;99.90
16064;DHT22;8136;53.172;8.256;2023-07-13T06:57:22;17.50;99.90
16064;DHT22;8136;53.172;8.256;2023-07-13T06:59:48;17.50;99.90
16064;DHT22;8136;53.172;8.256;2023-07-13T07:02:15;17.50;99.90
16064;DHT22;8136;53.172;8.256;2023-07-13T07:04:42;17.60;99.90
16064;DHT22;8136;53.172;8.256;2023-07-13T07:07:09;17.70;99.90
16064;DHT22;8136;53.172;8.256;2023-07-13T07:09:37;17.80;99.90
16064;DHT22;8136;53.172;8.256;2023-07-13T07:12:04;17.80;99.90
16064;DHT22;8136;53.172;8.256;2023-07-13T07:14:31;17.80;99.90
16064;DHT22;8136;53.172;8.256;2023-07-13T07:16:59;17.90;99.90
16064;DHT22;8136;53.172;8.256;2023-07-13T07:19:27;18.00;99.90
16064;DHT22;8136;53.172;8.256;2023-07-13T07:21:53;18.00;99.90
16064;DHT22;8136;53.172;8.256;2023-07-13T07:24:20;18.10;99.90
16064;DHT22;8136;53.172;8.256;2023-07-13T07:26:48;18.20;99.90
16064;DHT22;8136;53.172;8.256;2023-07-13T07:29:15;18.20;99.90
16064;DHT22;8136;53.172;8.256;2023-07-13T07:31:42;18.30;99.90
16064;DHT22;8136;53.172;8.256;2023-07-13T07:34:09;18.30;99.90
16064;DHT22;8136;53.172;8.256;2023-07-13T07:36:35;18.40;99.90
16064;DHT22;8136;53.172;8.256;2023-07-13T07:39:02;18.50;99.90
16064;DHT22;8136;53.172;8.256;2023-07-13T07:41:30;18.50;99.90
16064;DHT22;8136;53.172;8.256;2023-07-13T07:43:58;18.60;99.90
16064;DHT22;8136;53.172;8.256;2023-07-13T07:46:25;18.70;99.90
16064;DHT22;8136;53.172;8.256;2023-07-13T07:48:51;18.80;99.90
16064;DHT22;8136;53.172;8.256;2023-07-13T07:51:18;18.70;99.90
16064;DHT22;8136;53.172;8.256;2023-07-13T07:53:45;18.70;99.90
16064;DHT22;8136;53.172;8.256;2023-07-13T07:56:12;18.70;99.90
16064;DHT22;8136;53.172;8.256;2023-07-13T07:58:39;18.80;99.90
16064;DHT22;8136;53.172;8.256;2023-07-13T08:01:07;18.90;99.90
16064;DHT22;8136;53.172;8.256;2023-07-13T08:03:34;19.00;99.90
16064;DHT22;8136;53.172;8.256;2023-07-13T08:06:00;19.10;99.90
16064;DHT22;8136;53.172;8.256;2023-07-13T08:08:27;19.10;99.90
16064;DHT22;8136;53.172;8.256;2023-07-13T08:10:54;19.00;99.90
16064;DHT22;8136;53.172;8.256;2023-07-13T08:13:21;18.90;99.90
16064;DHT22;8136;53.172;8.256;2023-07-13T08:15:47;19.00;99.90
16064;DHT22;8136;53.172;8.256;2023-07-13T08:18:17;19.00;99.90
16064;DHT22;8136;53.172;8.256;2023-07-13T08:20:43;19.20;99.90
16064;DHT22;8136;53.172;8.256;2023-07-13T08:23:10;19.20;99.90
16064;DHT22;8136;53.172;8.256;2023-07-13T08:25:37;19.40;99.90
16064;DHT22;8136;53.172;8.256;2023-07-13T08:28:04;19.50;99.90
16064;DHT22;8136;53.172;8.256;2023-07-13T08:30:31;19.60;99.90
16064;DHT22;8136;53.172;8.256;2023-07-13T08:32:58;19.70;99.90
16064;DHT22;8136;53.172;8.256;2023-07-13T08:35:45;19.80;99.90
16064;DHT22;8136;53.172;8.256;2023-07-13T08:38:24;19.80;99.90
16064;DHT22;8136;53.172;8.256;2023-07-13T08:40:53;19.80;99.90
16064;DHT22;8136;53.172;8.256;2023-07-13T08:43:25;19.90;99.90
16064;DHT22;8136;53.172;8.256;2023-07-13T08:45:58;19.90;99.90
16064;DHT22;8136;53.172;8.256;2023-07-13T08:48:36;19.90;99.90
16064;DHT22;8136;53.172;8.256;2023-07-13T08:51:23;20.00;99.90
16064;DHT22;8136;53.172;8.256;2023-07-13T08:54:05;20.20;99.90
16064;DHT22;8136;53.172;8.256;2023-07-13T08:56:35;20.20;99.90
16064;DHT22;8136;53.172;8.256;2023-07-13T08:59:32;20.30;99.90
16064;DHT22;8136;53.172;8.256;2023-07-13T09:02:36;20.40;99.90
16064;DHT22;8136;53.172;8.256;2023-07-13T09:05:11;20.40;99.90
16064;DHT22;8136;53.172;8.256;2023-07-13T09:08:04;20.30;99.90
16064;DHT22;8136;53.172;8.256;2023-07-13T09:10:41;20.10;99.90
16064;DHT22;8136;53.172;8.256;2023-07-13T09:13:20;20.00;99.90
16064;DHT22;8136;53.172;8.256;2023-07-13T09:16:14;20.00;99.90
16064;DHT22;8136;53.172;8.256;2023-07-13T09:18:44;20.00;99.90
16064;DHT22;8136;53.172;8.256;2023-07-13T09:21:20;20.20;99.90
16064;DHT22;8136;53.172;8.256;2023-07-13T09:23:53;20.30;99.90
16064;DHT22;8136;53.172;8.256;2023-07-13T09:26:42;20.40;99.90
16064;DHT22;8136;53.172;8.256;2023-07-13T09:29:13;20.60;99.90
16064;DHT22;8136;53.172;8.256;2023-07-13T09:31:44;20.40;99.90
16064;DHT22;8136;53.172;8.256;2023-07-13T09:34:13;20.40;99.90
16064;DHT22;8136;53.172;8.256;2023-07-13T09:36:41;20.30;99.90
16064;DHT22;8136;53.172;8.256;2023-07-13T09:42:34;20.50;99.90
16064;DHT22;8136;53.172;8.256;2023-07-13T09:45:04;20.70;99.90
16064;DHT22;8136;53.172;8.256;2023-07-13T09:47:39;20.90;99.90
16064;DHT22;8136;53.172;8.256;2023-07-13T09:50:10;20.90;99.90
16064;DHT22;8136;53.172;8.256;2023-07-13T09:56:00;20.80;99.90
16064;DHT22;8136;53.172;8.256;2023-07-13T09:58:30;20.90;99.90
16064;DHT22;8136;53.172;8.256;2023-07-13T10:03:32;21.00;99.90
16064;DHT22;8136;53.172;8.256;2023-07-13T10:09:10;21.20;99.90
16064;DHT22;8136;53.172;8.256;2023-07-13T10:11:45;21.20;99.90
16064;DHT22;8136;53.172;8.256;2023-07-13T10:14:40;21.10;99.90
16064;DHT22;8136;53.172;8.256;2023-07-13T10:17:38;21.10;99.90
16064;DHT22;8136;53.172;8.256;2023-07-13T10:23:23;21.10;99.90
16064;DHT22;8136;53.172;8.256;2023-07-13T10:25:57;21.20;99.90
16064;DHT22;8136;53.172;8.256;2023-07-13T10:28:36;21.10;99.90
16064;DHT22;8136;53.172;8.256;2023-07-13T10:31:14;21.10;99.90
16064;DHT22;8136;53.172;8.256;2023-07-13T10:33:50;21.20;99.90
16064;DHT22;8136;53.172;8.256;2023-07-13T10:36:39;21.20;99.90
16064;DHT22;8136;53.172;8.256;2023-07-13T10:39:16;21.30;99.90
16064;DHT22;8136;53.172;8.256;2023-07-13T10:42:03;21.40;99.90
16064;DHT22;8136;53.172;8.256;2023-07-13T10:44:35;21.10;99.90
16064;DHT22;8136;53.172;8.256;2023-07-13T10:47:08;20.80;99.90
16064;DHT22;8136;53.172;8.256;2023-07-13T10:49:39;20.70;99.90
16064;DHT22;8136;53.172;8.256;2023-07-13T10:52:42;20.60;99.90
16064;DHT22;8136;53.172;8.256;2023-07-13T10:55:54;20.50;99.90
16064;DHT22;8136;53.172;8.256;2023-07-13T10:58:23;20.40;99.90
16064;DHT22;8136;53.172;8.256;2023-07-13T11:01:04;20.40;99.90
16064;DHT22;8136;53.172;8.256;2023-07-13T11:04:11;20.10;99.90
16064;DHT22;8136;53.172;8.256;2023-07-13T11:06:43;19.50;99.90
16064;DHT22;8136;53.172;8.256;2023-07-13T11:12:54;18.20;99.90
16064;DHT22;8136;53.172;8.256;2023-07-13T11:15:31;17.80;99.90
16064;DHT22;8136;53.172;8.256;2023-07-13T11:18:03;17.60;99.90
16064;DHT22;8136;53.172;8.256;2023-07-13T11:20:42;17.40;99.90
16064;DHT22;8136;53.172;8.256;2023-07-13T11:23:26;17.20;99.90
16064;DHT22;8136;53.172;8.256;2023-07-13T11:25:54;17.00;99.90
16064;DHT22;8136;53.172;8.256;2023-07-13T11:28:30;16.90;99.90
16064;DHT22;8136;53.172;8.256;2023-07-13T11:31:16;16.80;99.90
16064;DHT22;8136;53.172;8.256;2023-07-13T11:33:57;16.70;99.90
16064;DHT22;8136;53.172;8.256;2023-07-13T11:36:31;16.80;99.90
16064;DHT22;8136;53.172;8.256;2023-07-13T11:39:09;16.80;99.90
16064;DHT22;8136;53.172;8.256;2023-07-13T11:41:53;16.80;99.90
16064;DHT22;8136;53.172;8.256;2023-07-13T11:44:24;16.90;99.90
16064;DHT22;8136;53.172;8.256;2023-07-13T11:47:17;16.90;99.90
16064;DHT22;8136;53.172;8.256;2023-07-13T11:53:16;16.90;99.90
16064;DHT22;8136;53.172;8.256;2023-07-13T11:55:43;17.10;99.90
16064;DHT22;8136;53.172;8.256;2023-07-13T11:58:17;17.10;99.90
16064;DHT22;8136;53.172;8.256;2023-07-13T12:04:12;17.30;99.90
16064;DHT22;8136;53.172;8.256;2023-07-13T12:09:16;17.70;99.90
16064;DHT22;8136;53.172;8.256;2023-07-13T12:11:43;18.00;99.90
16064;DHT22;8136;53.172;8.256;2023-07-13T12:14:14;18.30;99.90
16064;DHT22;8136;53.172;8.256;2023-07-13T12:16:42;18.50;99.90
16064;DHT22;8136;53.172;8.256;2023-07-13T12:19:17;18.70;99.90
16064;DHT22;8136;53.172;8.256;2023-07-13T12:21:47;19.00;99.90
16064;DHT22;8136;53.172;8.256;2023-07-13T12:24:17;19.10;99.90
16064;DHT22;8136;53.172;8.256;2023-07-13T12:26:51;19.20;99.90
16064;DHT22;8136;53.172;8.256;2023-07-13T12:29:23;19.30;99.90
16064;DHT22;8136;53.172;8.256;2023-07-13T12:31:50;19.40;99.90
16064;DHT22;8136;53.172;8.256;2023-07-13T12:34:20;19.60;99.90
16064;DHT22;8136;53.172;8.256;2023-07-13T12:36:52;19.70;99.90
16064;DHT22;8136;53.172;8.256;2023-07-13T12:39:28;19.90;99.90
16064;DHT22;8136;53.172;8.256;2023-07-13T12:42:13;20.10;99.90
16064;DHT22;8136;53.172;8.256;2023-07-13T12:44:42;20.40;99.90
16064;DHT22;8136;53.172;8.256;2023-07-13T12:47:14;20.50;99.90
16064;DHT22;8136;53.172;8.256;2023-07-13T12:49:42;20.50;99.90
16064;DHT22;8136;53.172;8.256;2023-07-13T12:52:13;20.60;99.90
16064;DHT22;8136;53.172;8.256;2023-07-13T12:54:52;20.70;99.90
16064;DHT22;8136;53.172;8.256;2023-07-13T12:57:22;20.80;99.90
16064;DHT22;8136;53.172;8.256;2023-07-13T12:59:52;20.70;99.90
16064;DHT22;8136;53.172;8.256;2023-07-13T13:02:26;20.80;99.90
16064;DHT22;8136;53.172;8.256;2023-07-13T13:04:55;20.70;99.90
16064;DHT22;8136;53.172;8.256;2023-07-13T13:07:23;20.60;99.90
16064;DHT22;8136;53.172;8.256;2023-07-13T13:09:51;20.40;99.90
16064;DHT22;8136;53.172;8.256;2023-07-13T13:12:22;20.40;99.90
16064;DHT22;8136;53.172;8.256;2023-07-13T13:14:51;20.40;99.90
16064;DHT22;8136;53.172;8.256;2023-07-13T13:17:20;20.30;99.90
16064;DHT22;8136;53.172;8.256;2023-07-13T13:19:49;20.30;99.90
16064;DHT22;8136;53.172;8.256;2023-07-13T13:22:18;20.10;99.90
16064;DHT22;8136;53.172;8.256;2023-07-13T13:24:45;20.00;99.90
16064;DHT22;8136;53.172;8.256;2023-07-13T13:27:16;20.00;99.90
16064;DHT22;8136;53.172;8.256;2023-07-13T13:29:44;19.90;99.90
16064;DHT22;8136;53.172;8.256;2023-07-13T13:32:12;19.70;99.90
16064;DHT22;8136;53.172;8.256;2023-07-13T13:34:39;19.70;99.90
16064;DHT22;8136;53.172;8.256;2023-07-13T13:37:16;19.70;99.90
16064;DHT22;8136;53.172;8.256;2023-07-13T13:39:44;19.70;99.90
16064;DHT22;8136;53.172;8.256;2023-07-13T13:42:11;19.70;99.90
16064;DHT22;8136;53.172;8.256;2023-07-13T13:44:41;19.70;99.90
16064;DHT22;8136;53.172;8.256;2023-07-13T13:47:21;19.90;99.90
16064;DHT22;8136;53.172;8.256;2023-07-13T13:49:52;20.10;99.90
16064;DHT22;8136;53.172;8.256;2023-07-13T13:52:18;20.10;99.90
16064;DHT22;8136;53.172;8.256;2023-07-13T13:54:45;20.10;99.90
16064;DHT22;8136;53.172;8.256;2023-07-13T13:57:12;20.20;99.90
16064;DHT22;8136;53.172;8.256;2023-07-13T13:59:40;20.30;99.90
16064;DHT22;8136;53.172;8.256;2023-07-13T14:02:22;20.30;99.90
16064;DHT22;8136;53.172;8.256;2023-07-13T14:04:54;20.30;99.90
16064;DHT22;8136;53.172;8.256;2023-07-13T14:07:21;20.20;99.90
16064;DHT22;8136;53.172;8.256;2023-07-13T14:09:48;20.30;99.90
16064;DHT22;8136;53.172;8.256;2023-07-13T14:12:15;20.20;99.90
16064;DHT22;8136;53.172;8.256;2023-07-13T14:14:43;20.30;99.90
16064;DHT22;8136;53.172;8.256;2023-07-13T14:17:19;20.20;99.90
16064;DHT22;8136;53.172;8.256;2023-07-13T14:19:48;20.10;99.90
16064;DHT22;8136;53.172;8.256;2023-07-13T14:22:16;20.00;99.90
16064;DHT22;8136;53.172;8.256;2023-07-13T14:24:43;19.80;99.90
16064;DHT22;8136;53.172;8.256;2023-07-13T14:27:10;19.60;99.90
16064;DHT22;8136;53.172;8.256;2023-07-13T14:29:37;19.40;99.90
16064;DHT22;8136;53.172;8.256;2023-07-13T14:32:09;19.40;99.90
16064;DHT22;8136;53.172;8.256;2023-07-13T14:34:36;19.40;99.90
16064;DHT22;8136;53.172;8.256;2023-07-13T14:37:03;19.40;99.90
16064;DHT22;8136;53.172;8.256;2023-07-13T14:39:31;19.30;99.90
16064;DHT22;8136;53.172;8.256;2023-07-13T14:41:58;19.20;99.90
16064;DHT22;8136;53.172;8.256;2023-07-13T14:44:27;19.00;99.90
16064;DHT22;8136;53.172;8.256;2023-07-13T14:46:55;19.00;99.90
16064;DHT22;8136;53.172;8.256;2023-07-13T14:49:29;19.10;99.90
16064;DHT22;8136;53.172;8.256;2023-07-13T14:51:57;19.20;99.90
16064;DHT22;8136;53.172;8.256;2023-07-13T14:54:25;19.20;99.90
16064;DHT22;8136;53.172;8.256;2023-07-13T14:56:52;19.10;99.90
16064;DHT22;8136;53.172;8.256;2023-07-13T14:59:18;19.10;99.90
16064;DHT22;8136;53.172;8.256;2023-07-13T15:01:46;19.10;99.90
16064;DHT22;8136;53.172;8.256;2023-07-13T15:04:13;19.10;99.90
16064;DHT22;8136;53.172;8.256;2023-07-13T15:06:56;19.10;99.90
16064;DHT22;8136;53.172;8.256;2023-07-13T15:09:24;19.10;99.90
16064;DHT22;8136;53.172;8.256;2023-07-13T15:11:52;19.00;99.90
16064;DHT22;8136;53.172;8.256;2023-07-13T15:14:18;19.00;99.90
16064;DHT22;8136;53.172;8.256;2023-07-13T15:16:46;19.00;99.90
16064;DHT22;8136;53.172;8.256;2023-07-13T15:19:13;18.90;99.90
16064;DHT22;8136;53.172;8.256;2023-07-13T15:21:41;18.90;99.90
16064;DHT22;8136;53.172;8.256;2023-07-13T15:24:10;18.80;99.90
16064;DHT22;8136;53.172;8.256;2023-07-13T15:26:37;18.70;99.90
16064;DHT22;8136;53.172;8.256;2023-07-13T15:29:04;18.70;99.90
16064;DHT22;8136;53.172;8.256;2023-07-13T15:31:32;18.70;99.90
16064;DHT22;8136;53.172;8.256;2023-07-13T15:34:09;18.70;99.90
16064;DHT22;8136;53.172;8.256;2023-07-13T15:36:37;18.60;99.90
16064;DHT22;8136;53.172;8.256;2023-07-13T15:39:05;18.60;99.90
16064;DHT22;8136;53.172;8.256;2023-07-13T15:41:33;18.70;99.90
16064;DHT22;8136;53.172;8.256;2023-07-13T15:44:12;18.60;99.90
16064;DHT22;8136;53.172;8.256;2023-07-13T15:46:45;18.50;99.90
16064;DHT22;8136;53.172;8.256;2023-07-13T15:49:12;18.50;99.90
16064;DHT22;8136;53.172;8.256;2023-07-13T15:51:39;18.30;99.90
16064;DHT22;8136;53.172;8.256;2023-07-13T15:54:05;18.20;99.90
16064;DHT22;8136;53.172;8.256;2023-07-13T15:56:38;18.20;99.90
16064;DHT22;8136;53.172;8.256;2023-07-13T15:59:09;18.30;99.90
16064;DHT22;8136;53.172;8.256;2023-07-13T16:01:38;18.60;99.90
16064;DHT22;8136;53.172;8.256;2023-07-13T16:04:06;19.00;99.90
16064;DHT22;8136;53.172;8.256;2023-07-13T16:06:35;19.80;99.90
16064;DHT22;8136;53.172;8.256;2023-07-13T16:09:03;19.80;99.90
16064;DHT22;8136;53.172;8.256;2023-07-13T16:11:33;20.10;99.90
16064;DHT22;8136;53.172;8.256;2023-07-13T16:14:03;20.80;99.90
16064;DHT22;8136;53.172;8.256;2023-07-13T16:16:31;21.70;99.90
16064;DHT22;8136;53.172;8.256;2023-07-13T16:19:01;22.40;99.90
16064;DHT22;8136;53.172;8.256;2023-07-13T16:21:29;22.10;99.90
16064;DHT22;8136;53.172;8.256;2023-07-13T16:23:58;21.90;99.90
16064;DHT22;8136;53.172;8.256;2023-07-13T16:26:28;21.90;99.90
16064;DHT22;8136;53.172;8.256;2023-07-13T16:29:11;21.30;99.90
16064;DHT22;8136;53.172;8.256;2023-07-13T16:31:38;21.00;99.90
16064;DHT22;8136;53.172;8.256;2023-07-13T16:34:05;20.70;99.90
16064;DHT22;8136;53.172;8.256;2023-07-13T16:36:35;20.50;99.90
16064;DHT22;8136;53.172;8.256;2023-07-13T16:39:10;20.20;99.90